createdAt,value
2023-11-12T00:02:44.458Z,4.60
2023-11-12T00:05:46.988Z,2.67
2023-11-12T00:08:49.848Z,0.93
2023-11-12T00:11:52.767Z,1.70
2023-11-12T00:14:55.487Z,0.90
2023-11-12T00:17:58.156Z,1.17
2023-11-12T00:21:00.691Z,0.97
2023-11-12T00:24:04.230Z,1.30
2023-11-12T00:27:06.759Z,0.93
2023-11-12T00:30:10.452Z,1.23
2023-11-12T00:33:13.126Z,0.65
2023-11-12T00:36:15.769Z,1.10
2023-11-12T00:39:18.378Z,1.10
2023-11-12T00:42:20.908Z,1.17
2023-11-12T00:45:23.992Z,0.73
2023-11-12T00:48:27.681Z,1.27
2023-11-12T00:51:30.457Z,1.27
2023-11-12T00:54:33.845Z,0.57
2023-11-12T00:57:36.372Z,0.77
2023-11-12T01:00:42.624Z,1.80
2023-11-12T01:03:45.670Z,1.00
2023-11-12T01:06:48.209Z,0.50
2023-11-12T01:09:51.485Z,1.03
2023-11-12T01:12:54.023Z,1.50
2023-11-12T01:15:57.352Z,1.10
2023-11-12T01:19:00.306Z,0.93
2023-11-12T01:22:03.000Z,2.53
2023-11-12T01:25:06.266Z,2.03
2023-11-12T01:28:08.846Z,1.30
2023-11-12T01:31:12.136Z,1.20
2023-11-12T01:34:15.570Z,0.93
2023-11-12T01:37:18.522Z,1.33
2023-11-12T01:40:21.668Z,1.43
2023-11-12T01:43:24.181Z,4.78
2023-11-12T01:46:30.926Z,1.48
2023-11-12T01:49:36.393Z,2.00
2023-11-12T01:52:40.251Z,1.47
2023-11-12T01:55:45.484Z,0.87
2023-11-12T01:58:53.653Z,1.50
2023-11-12T02:01:56.200Z,0.82
2023-11-12T02:04:59.436Z,2.33
2023-11-12T02:08:04.571Z,1.33
2023-11-12T02:11:10.317Z,0.93
2023-11-12T02:14:13.146Z,1.92
2023-11-12T02:17:15.713Z,2.50
2023-11-12T02:20:18.384Z,1.17
2023-11-12T02:23:21.156Z,1.53
2023-11-12T02:26:23.687Z,0.97
2023-11-12T02:29:26.315Z,2.10
2023-11-12T02:32:33.868Z,1.08
2023-11-12T02:35:38.202Z,1.30
2023-11-12T02:38:41.860Z,2.27
2023-11-12T02:41:46.037Z,1.37
2023-11-12T02:44:49.674Z,2.10
2023-11-12T02:47:52.268Z,0.90
2023-11-12T02:50:55.671Z,0.90
2023-11-12T02:53:58.230Z,1.27
2023-11-12T02:57:00.770Z,0.50
2023-11-12T03:00:03.573Z,1.35
2023-11-12T03:03:06.201Z,2.08
2023-11-12T03:06:08.899Z,0.82
2023-11-12T03:09:11.467Z,4.30
2023-11-12T03:12:14.071Z,1.57
2023-11-12T03:15:18.067Z,0.90
2023-11-12T03:18:20.801Z,1.95
2023-11-12T03:21:24.180Z,3.05
2023-11-12T03:24:26.732Z,0.77
2023-11-12T03:27:31.149Z,1.50
2023-11-12T03:30:33.660Z,1.50
2023-11-12T03:33:36.518Z,2.03
2023-11-12T03:36:39.211Z,2.22
2023-11-12T03:39:42.022Z,1.97
2023-11-12T03:42:45.054Z,1.43
2023-11-12T03:45:47.733Z,3.17
2023-11-12T03:48:50.224Z,1.80
2023-11-12T03:51:53.401Z,2.28
2023-11-12T03:54:55.964Z,1.47
2023-11-12T03:57:58.570Z,1.57
2023-11-12T04:01:01.297Z,2.58
2023-11-12T04:04:04.294Z,3.55
2023-11-12T04:07:06.945Z,1.15
2023-11-12T04:10:12.720Z,3.10
2023-11-12T04:13:15.373Z,1.13
2023-11-12T04:16:17.989Z,0.55
2023-11-12T04:19:20.585Z,1.95
2023-11-12T04:22:24.536Z,2.28
2023-11-12T04:25:27.076Z,3.10
2023-11-12T04:28:30.238Z,1.10
2023-11-12T04:31:33.104Z,1.92
2023-11-12T04:34:35.670Z,1.42
2023-11-12T04:37:39.332Z,1.13
2023-11-12T04:40:41.835Z,1.70
2023-11-12T04:43:45.055Z,1.80
2023-11-12T04:46:49.217Z,3.63
2023-11-12T04:49:53.213Z,1.90
2023-11-12T04:52:55.682Z,2.13
2023-11-12T04:55:58.200Z,2.03
2023-11-12T04:59:00.844Z,1.23
2023-11-12T05:02:03.987Z,4.53
2023-11-12T05:05:08.224Z,1.55
2023-11-12T05:08:10.721Z,3.35
2023-11-12T05:11:13.250Z,1.17
2023-11-12T05:14:15.746Z,1.67
2023-11-12T05:17:18.261Z,1.35
2023-11-12T05:20:20.843Z,1.35
2023-11-12T05:23:23.321Z,2.95
2023-11-12T05:26:25.889Z,1.63
2023-11-12T05:29:28.359Z,1.70
2023-11-12T05:32:30.961Z,3.78
2023-11-12T05:35:33.508Z,3.00
2023-11-12T05:38:35.995Z,1.77
2023-11-12T05:41:38.469Z,1.80
2023-11-12T05:44:41.032Z,1.50
2023-11-12T05:47:43.553Z,2.05
2023-11-12T05:50:46.501Z,1.60
2023-11-12T05:53:49.266Z,1.08
2023-11-12T05:56:51.783Z,3.23
2023-11-12T05:59:54.353Z,1.77
2023-11-12T06:02:57.310Z,2.05
2023-11-12T06:05:59.874Z,1.65
2023-11-12T06:09:02.433Z,1.67
2023-11-12T06:12:06.748Z,2.10
2023-11-12T06:15:10.983Z,4.93
2023-11-12T06:18:13.889Z,1.20
2023-11-12T06:21:16.697Z,1.23
2023-11-12T06:24:19.324Z,2.03
2023-11-12T06:27:22.002Z,3.00
2023-11-12T06:30:24.578Z,1.20
2023-11-12T06:33:27.298Z,2.05
2023-11-12T06:36:29.919Z,2.60
2023-11-12T06:39:32.547Z,2.65
2023-11-12T06:42:35.241Z,10.97
2023-11-12T06:45:37.862Z,7.57
2023-11-12T06:48:41.053Z,3.80
2023-11-12T06:51:43.808Z,2.22
2023-11-12T06:54:46.411Z,2.00
2023-11-12T06:57:48.985Z,2.77
2023-11-12T07:00:52.207Z,2.10
2023-11-12T07:03:55.108Z,2.58
2023-11-12T07:07:06.419Z,1.63
2023-11-12T07:10:16.375Z,4.25
2023-11-12T07:13:18.834Z,4.23
2023-11-12T07:16:21.791Z,1.73
2023-11-12T07:19:25.930Z,6.15
2023-11-12T07:22:29.453Z,2.13
2023-11-12T07:25:31.988Z,2.03
2023-11-12T07:28:34.557Z,1.40
2023-11-12T07:31:37.131Z,2.67
2023-11-12T07:34:39.678Z,1.38
2023-11-12T07:37:42.406Z,2.03
2023-11-12T07:40:44.965Z,1.17
2023-11-12T07:43:47.435Z,3.97
2023-11-12T07:46:50.924Z,1.50
2023-11-12T07:49:54.070Z,3.00
2023-11-12T07:52:56.630Z,1.85
2023-11-12T07:55:59.108Z,1.90
2023-11-12T07:59:01.627Z,2.00
2023-11-12T08:02:04.267Z,2.03
2023-11-12T08:05:09.506Z,2.75
2023-11-12T08:08:12.172Z,3.40
2023-11-12T08:11:14.788Z,2.05
2023-11-12T08:14:17.285Z,5.27
2023-11-12T08:17:19.877Z,7.67
2023-11-12T08:20:22.344Z,2.35
2023-11-12T08:23:24.820Z,2.33
2023-11-12T08:26:30.827Z,3.72
2023-11-12T08:29:33.635Z,2.17
2023-11-12T08:32:36.695Z,2.90
2023-11-12T08:35:40.328Z,9.52
2023-11-12T08:38:42.893Z,3.95
2023-11-12T08:41:48.359Z,4.40
2023-11-12T08:44:51.242Z,3.33
2023-11-12T08:47:53.754Z,2.40
2023-11-12T08:50:56.312Z,2.65
2023-11-12T08:53:58.957Z,5.00
2023-11-12T08:57:04.391Z,1.10
2023-11-12T09:00:08.525Z,2.50
2023-11-12T09:03:11.216Z,1.53
2023-11-12T09:06:13.772Z,2.03
2023-11-12T09:09:18.791Z,4.90
2023-11-12T09:12:21.395Z,2.97
2023-11-12T09:15:23.914Z,2.23
2023-11-12T09:18:28.704Z,5.13
2023-11-12T09:21:32.276Z,4.38
2023-11-12T09:24:34.805Z,2.10
2023-11-12T09:27:37.404Z,2.30
2023-11-12T09:30:49.239Z,1.13
2023-11-12T09:33:59.893Z,2.27
2023-11-12T09:37:03.563Z,2.58
2023-11-12T09:40:11.754Z,2.65
2023-11-12T09:43:15.452Z,3.20
2023-11-12T09:46:20.674Z,2.97
2023-11-12T09:49:23.828Z,4.03
2023-11-12T09:52:26.845Z,2.88
2023-11-12T09:55:29.326Z,3.10
2023-11-12T09:58:31.812Z,1.95
2023-11-12T10:01:35.619Z,5.60
2023-11-12T10:04:43.315Z,3.00
2023-11-12T10:07:47.171Z,2.25
2023-11-12T10:10:49.764Z,2.97
2023-11-12T10:13:52.903Z,2.10
2023-11-12T10:17:08.881Z,1.73
2023-11-12T10:20:20.531Z,1.70
2023-11-12T10:23:32.619Z,1.77
2023-11-12T10:26:36.936Z,1.50
2023-11-12T10:29:40.788Z,2.53
2023-11-12T10:32:43.358Z,2.43
2023-11-12T10:35:47.760Z,1.70
2023-11-12T10:38:51.078Z,4.38
2023-11-12T10:41:53.692Z,1.30
2023-11-12T10:44:58.318Z,1.27
2023-11-12T10:48:05.427Z,1.93
2023-11-12T10:51:09.249Z,3.87
2023-11-12T10:54:15.134Z,0.60
2023-11-12T10:57:24.744Z,1.73
2023-11-12T11:00:27.871Z,0.93
2023-11-12T11:03:32.606Z,2.00
2023-11-12T11:06:37.278Z,4.03
2023-11-12T11:09:40.094Z,1.42
2023-11-12T11:12:44.009Z,1.50
2023-11-12T11:15:57.180Z,1.60
2023-11-12T11:19:00.669Z,1.43
2023-11-12T11:22:32.886Z,1.40
2023-11-12T11:25:35.770Z,5.05
2023-11-12T11:28:38.236Z,1.17
2023-11-12T11:32:09.833Z,1.40
2023-11-12T11:35:19.222Z,2.93
2023-11-12T11:38:25.356Z,0.80
2023-11-12T11:41:27.854Z,2.05
2023-11-12T11:44:35.455Z,1.42
2023-11-12T11:47:38.076Z,1.23
2023-11-12T11:50:46.827Z,1.23
2023-11-12T11:53:50.164Z,0.80
2023-11-12T11:56:53.728Z,0.52
2023-11-12T11:59:57.639Z,1.23
2023-11-12T12:03:02.503Z,0.63
2023-11-12T12:06:24.682Z,1.33
2023-11-12T12:09:27.956Z,1.57
2023-11-12T12:12:31.238Z,3.17
2023-11-12T12:15:34.597Z,1.08
2023-11-12T12:18:37.422Z,1.17
2023-11-12T12:21:48.305Z,2.50
2023-11-12T12:24:54.498Z,2.67
2023-11-12T12:27:57.106Z,1.98
2023-11-12T12:30:59.769Z,1.38
2023-11-12T12:34:10.930Z,2.20
2023-11-12T12:37:20.756Z,0.97
2023-11-12T12:40:29.699Z,0.60
2023-11-12T12:43:51.937Z,1.10
2023-11-12T12:46:54.491Z,1.48
2023-11-12T12:49:59.634Z,2.03
2023-11-12T12:53:16.569Z,1.70
2023-11-12T12:56:20.308Z,1.50
2023-11-12T12:59:22.944Z,1.45
2023-11-12T13:02:25.616Z,2.42
2023-11-12T13:05:28.139Z,1.23
2023-11-12T13:08:30.695Z,1.80
2023-11-12T13:11:33.144Z,1.60
2023-11-12T13:14:35.676Z,1.85
2023-11-12T13:17:39.369Z,1.10
2023-11-12T13:20:43.702Z,1.05
2023-11-12T13:23:46.208Z,1.90
2023-11-12T13:26:49.296Z,1.10
2023-11-12T13:29:52.211Z,2.50
2023-11-12T13:32:55.993Z,1.63
2023-11-12T13:36:01.276Z,1.05
2023-11-12T13:39:10.892Z,2.80
2023-11-12T13:42:13.461Z,1.17
2023-11-12T13:45:19.310Z,2.60
2023-11-12T13:48:21.981Z,1.70
2023-11-12T13:51:25.640Z,5.70
2023-11-12T13:54:28.244Z,1.73
2023-11-12T13:57:33.511Z,1.93
2023-11-12T14:00:37.128Z,1.88
2023-11-12T14:03:41.943Z,1.70
2023-11-12T14:06:48.424Z,2.05
2023-11-12T14:09:51.052Z,2.27
2023-11-12T14:12:54.447Z,4.47
2023-11-12T14:15:59.209Z,1.67
2023-11-12T14:19:01.922Z,3.85
2023-11-12T14:22:05.604Z,1.83
2023-11-12T14:25:12.265Z,2.63
2023-11-12T14:28:14.877Z,1.90
2023-11-12T14:31:21.594Z,1.95
2023-11-12T14:34:24.712Z,1.88
2023-11-12T14:37:27.427Z,2.67
2023-11-12T14:40:30.036Z,1.40
2023-11-12T14:43:38.508Z,1.77
2023-11-12T14:46:41.539Z,3.63
2023-11-12T14:49:47.256Z,1.70
2023-11-12T14:52:52.080Z,2.85
2023-11-12T14:55:55.343Z,4.47
2023-11-12T14:58:58.336Z,2.63
2023-11-12T15:02:00.989Z,4.80
2023-11-12T15:05:07.009Z,5.85
2023-11-12T15:08:10.686Z,3.22
2023-11-12T15:11:13.890Z,7.40
2023-11-12T15:14:16.579Z,2.90
2023-11-12T15:17:22.013Z,5.30
2023-11-12T15:20:24.757Z,1.90
2023-11-12T15:23:29.333Z,4.45
2023-11-12T15:26:32.995Z,3.17
2023-11-12T15:29:35.797Z,3.43
2023-11-12T15:32:38.459Z,3.22
2023-11-12T15:35:41.093Z,7.90
2023-11-12T15:38:43.730Z,8.93
2023-11-12T15:41:46.282Z,7.50
2023-11-12T15:44:50.654Z,6.27
2023-11-12T15:47:53.890Z,11.57
2023-11-12T15:50:56.810Z,8.93
2023-11-12T15:54:01.285Z,9.38
2023-11-12T15:57:04.509Z,10.20
2023-11-12T16:00:09.545Z,12.83
2023-11-12T16:03:18.610Z,13.27
2023-11-12T16:06:21.869Z,12.25
2023-11-12T16:09:24.444Z,16.48
2023-11-12T16:12:27.829Z,17.93
2023-11-12T16:15:31.215Z,20.63
2023-11-12T16:18:33.943Z,20.05
2023-11-12T16:21:36.773Z,30.75
2023-11-12T16:24:42.249Z,30.40
2023-11-12T16:27:45.061Z,29.13
2023-11-12T16:30:49.287Z,35.47
2023-11-12T16:33:53.775Z,37.33
2023-11-12T16:36:56.424Z,38.00
2023-11-12T16:40:00.777Z,47.83
2023-11-12T16:43:04.360Z,38.17
2023-11-12T16:46:07.006Z,45.17
2023-11-12T16:49:09.904Z,48.72
2023-11-12T16:52:12.465Z,38.25
2023-11-12T16:55:15.498Z,40.88
2023-11-12T16:58:17.995Z,40.83
2023-11-12T17:01:20.929Z,52.20
2023-11-12T17:04:25.088Z,46.80
2023-11-12T17:07:29.251Z,44.00
2023-11-12T17:10:32.003Z,43.42
2023-11-12T17:13:35.316Z,49.80
2023-11-12T17:16:44.059Z,44.23
2023-11-12T17:19:46.939Z,49.25
2023-11-12T17:22:50.378Z,49.92
2023-11-12T17:25:54.078Z,48.85
2023-11-12T17:29:00.490Z,56.70
2023-11-12T17:32:03.537Z,50.47
2023-11-12T17:35:06.599Z,59.70
2023-11-12T17:38:09.172Z,42.70
2023-11-12T17:41:11.660Z,52.05
2023-11-12T17:44:15.706Z,47.97
2023-11-12T17:47:18.504Z,46.17
2023-11-12T17:50:21.299Z,44.85
2023-11-12T17:53:25.312Z,44.15
2023-11-12T17:56:28.615Z,44.80
2023-11-12T17:59:31.603Z,44.77
2023-11-12T18:02:34.400Z,43.50
2023-11-12T18:05:37.538Z,48.47
2023-11-12T18:08:40.000Z,43.28
2023-11-12T18:11:46.257Z,33.53
2023-11-12T18:14:49.735Z,37.05
2023-11-12T18:17:52.678Z,38.35
2023-11-12T18:20:55.720Z,36.13
2023-11-12T18:23:58.395Z,38.47
2023-11-12T18:27:01.013Z,35.27
2023-11-12T18:30:06.724Z,33.53
2023-11-12T18:33:15.299Z,32.47
2023-11-12T18:36:18.201Z,31.60
2023-11-12T18:39:20.737Z,39.43
2023-11-12T18:42:25.125Z,41.63
2023-11-12T18:45:30.285Z,81.03
2023-11-12T18:48:34.229Z,99.13
2023-11-12T18:51:37.002Z,84.30
2023-11-12T18:54:39.571Z,54.20
2023-11-12T18:57:43.612Z,54.97
2023-11-12T19:00:46.352Z,48.08
2023-11-12T19:03:49.401Z,65.33
2023-11-12T19:06:52.027Z,82.25
2023-11-12T19:09:55.317Z,69.93
2023-11-12T19:12:58.006Z,74.60
2023-11-12T19:16:00.966Z,56.67
2023-11-12T19:19:04.520Z,63.50
2023-11-12T19:22:07.353Z,56.17
2023-11-12T19:25:16.198Z,54.97
2023-11-12T19:28:19.203Z,48.40
2023-11-12T19:31:30.606Z,50.45
2023-11-12T19:34:36.429Z,56.30
2023-11-12T19:37:39.981Z,68.47
2023-11-12T19:40:44.879Z,66.65
2023-11-12T19:43:48.618Z,71.95
2023-11-12T19:46:51.928Z,71.80
2023-11-12T19:49:54.686Z,83.87
2023-11-12T19:52:57.909Z,92.70
2023-11-12T19:56:00.790Z,75.85
2023-11-12T19:59:03.519Z,72.30
2023-11-12T20:02:07.648Z,76.87
2023-11-12T20:05:10.481Z,75.22
2023-11-12T20:08:13.288Z,77.05
2023-11-12T20:11:17.506Z,74.37
2023-11-12T20:14:22.621Z,63.30
2023-11-12T20:17:25.146Z,66.25
2023-11-12T20:20:27.686Z,65.38
2023-11-12T20:23:30.878Z,67.77
2023-11-12T20:26:34.765Z,69.63
2023-11-12T20:29:37.448Z,65.28
2023-11-12T20:32:42.831Z,61.55
2023-11-12T20:35:48.403Z,67.57
2023-11-12T20:38:52.427Z,68.38
2023-11-12T20:41:57.659Z,65.10
2023-11-12T20:45:01.743Z,60.78
2023-11-12T20:48:04.953Z,58.47
2023-11-12T20:51:09.415Z,67.53
2023-11-12T20:54:17.184Z,64.07
2023-11-12T20:57:19.908Z,74.30
2023-11-12T21:00:22.941Z,63.00
2023-11-12T21:03:26.035Z,71.85
2023-11-12T21:06:29.629Z,71.00
2023-11-12T21:09:33.507Z,72.80
2023-11-12T21:12:36.958Z,64.40
2023-11-12T21:15:41.689Z,59.17
2023-11-12T21:18:44.902Z,57.22
2023-11-12T21:21:50.341Z,55.77
2023-11-12T21:24:54.053Z,61.42
2023-11-12T21:27:56.584Z,68.18
2023-11-12T21:30:59.562Z,62.00
2023-11-12T21:34:02.321Z,61.55
2023-11-12T21:37:06.904Z,66.78
2023-11-12T21:40:09.967Z,64.72
2023-11-12T21:43:12.812Z,61.73
2023-11-12T21:46:17.067Z,59.30
2023-11-12T21:49:19.806Z,74.00
2023-11-12T21:52:24.198Z,82.95
2023-11-12T21:55:26.777Z,82.53
2023-11-12T21:58:29.522Z,80.97
2023-11-12T22:01:32.075Z,71.93
2023-11-12T22:04:34.612Z,63.63
2023-11-12T22:07:37.298Z,98.83
2023-11-12T22:10:39.896Z,92.00
2023-11-12T22:13:43.358Z,71.25
2023-11-12T22:16:46.286Z,76.03
2023-11-12T22:19:51.506Z,58.50
2023-11-12T22:22:56.806Z,57.60
2023-11-12T22:25:59.373Z,62.05
2023-11-12T22:29:01.992Z,62.20
2023-11-12T22:32:10.460Z,62.13
2023-11-12T22:35:13.049Z,52.47
2023-11-12T22:38:15.647Z,55.47
2023-11-12T22:41:19.429Z,56.57
2023-11-12T22:44:22.039Z,57.00
2023-11-12T22:47:26.248Z,57.40
2023-11-12T22:50:28.977Z,54.75
2023-11-12T22:53:31.519Z,58.33
2023-11-12T22:56:34.022Z,50.63
2023-11-12T22:59:36.855Z,49.13
2023-11-12T23:02:39.463Z,48.03
2023-11-12T23:05:43.393Z,51.65
2023-11-12T23:08:47.378Z,43.60
2023-11-12T23:11:49.858Z,50.35
2023-11-12T23:14:52.691Z,50.15
2023-11-12T23:17:55.253Z,53.20
2023-11-12T23:21:03.487Z,49.37
2023-11-12T23:24:11.818Z,46.90
2023-11-12T23:27:14.372Z,46.42
2023-11-12T23:30:17.258Z,52.83
2023-11-12T23:33:20.750Z,49.07
2023-11-12T23:36:23.316Z,45.70
2023-11-12T23:39:25.794Z,48.65
2023-11-12T23:42:28.598Z,49.80
2023-11-12T23:45:31.205Z,51.53
2023-11-12T23:48:35.149Z,40.75
2023-11-12T23:51:39.745Z,47.03
2023-11-12T23:54:43.396Z,40.63
2023-11-12T23:57:47.231Z,37.33
